RWL - Rawlins Muni/Harvey Fld

Pirep is a free, collaborative database of all public and private airports located within the United States. All pilots are welcome to contribute, edit, and improve any airport they have local knowledge about, no registration required.
Uploaded photos will be licensed under a CC BY-SA 4.0 license. Please only upload photos you have the rights to use.
Tags
Public
METAR / TAF
Flying Clubs
Edit Tags
Food
Camping
Lodging
Car Rental
Bicycles
Swimming
Golfing
Fishing
Hot Springs
Museum
Airpark
Upcoming Events
No upcoming events. Is anything happening here soon?
*
*
*

Where exactly on/near the airport is this event taking place?

Is there a webpage with more information for this event?

Who should be contacted for more information?

What is this event all about?

Repeat every
Description
Transient Parking
Fuel Location
Landing & Tie-down Fees
Crew Car Availability
Flying Clubs
Last updated: 2024-03-10 21:35:04 MDT
WiFi Access
Airport Statistics
Location: Rawlins, WY
Elevation: 6,816ft
Sectional: Cheyenne
Activation date: Nov 1937
Fuel: 100LL, A (prices)
Runway 04/22: 7,008ft
Runway 11/29: 4,322ft
Access: Open to the public
Current Weather — VFR
  • Weather data is strictly informational and not for flight planning purposes.
  • METAR
    2024-04-22 05:53:00 MDT
    Ceiling Wind Temperature Dewpoint Weather Visbility
    Sky clear 230° @ 14kt 44°F 28°F N/A 10SM
    Raw: KRWL 221153Z AUTO 23014KT 10SM CLR 07/M02 A2997 RMK AO2 SLP084 T00721022 10117 20072 58001
  • TAF
    2024-04-22 06:00:00 MDT – 2024-04-22 09:00:00 MDT
    Ceiling Wind Weather Visbility
    15,000ft 240° @ 12kt, gusts 20kt N/A 6SM
    Clouds: Broken @ 15,000ft
    Raw: KRWL 221121Z 2212/2312 24012G20KT P6SM BKN150 FM221500 26020G30KT P6SM BKN150 FM221900 26028G40KT P6SM BKN150 FM230400 29012KT P6SM SCT150 BKN250
  • TAF
    2024-04-22 09:00:00 MDT – 2024-04-22 13:00:00 MDT
    Ceiling Wind Weather Visbility
    15,000ft 260° @ 20kt, gusts 30kt N/A 6SM
    Clouds: Broken @ 15,000ft
    Raw: KRWL 221121Z 2212/2312 24012G20KT P6SM BKN150 FM221500 26020G30KT P6SM BKN150 FM221900 26028G40KT P6SM BKN150 FM230400 29012KT P6SM SCT150 BKN250
  • TAF
    2024-04-22 13:00:00 MDT – 2024-04-22 22:00:00 MDT
    Ceiling Wind Weather Visbility
    15,000ft 260° @ 28kt, gusts 40kt N/A 6SM
    Clouds: Broken @ 15,000ft
    Raw: KRWL 221121Z 2212/2312 24012G20KT P6SM BKN150 FM221500 26020G30KT P6SM BKN150 FM221900 26028G40KT P6SM BKN150 FM230400 29012KT P6SM SCT150 BKN250
  • TAF
    2024-04-22 22:00:00 MDT – 2024-04-23 06:00:00 MDT
    Ceiling Wind Weather Visbility
    25,000ft 290° @ 12kt N/A 6SM
    Clouds: Scattered @ 15,000ft, Broken @ 25,000ft
    Raw: KRWL 221121Z 2212/2312 24012G20KT P6SM BKN150 FM221500 26020G30KT P6SM BKN150 FM221900 26028G40KT P6SM BKN150 FM230400 29012KT P6SM SCT150 BKN250
Click/tap to add an annotation marker to the map
Airport Webcams
No webcams added yet.
Direct links to live image URLs will be displayed inline on this page. URLs to separate webpages will be linked to.
URL:
Direct links to live image URLs will be displayed inline on this page. URLs to separate webpages will be linked to.
URL:
Remarks
  • 7800' mtn 3 miles west, 7200' mtn 3 miles sw, 7200' mtn 3 miles ne.
  • Rwy 11/29 lmtd to acft up to 12000 lbs gwt.
  • Req all acft depng rwy 29 make right turnout as soon as safety pmts aft tkof to avoid housing area and for noise abatement.
  • Birds invof all rys.
  • For cd if una to ctc on fss freq, ctc denver artcc at 303-651-4257.
  • Actvt reil rwy 22 & 29; papi rwy 04 & 22; mirl rwy 04/22 & 11/29 - ctaf.
  • A $70.00 fee will be charged to all commercial/corporate aircraft unless fuel is purchased.
  • Phone nr for fuel aft hrs posted on fbo door.
Comments
Leave a comment What was your experience like at this airport?